Time;durP1;ratioP1;P1;durP2;ratioP2;P2;SDS_P1;SDS_P2;PMS_P1;PMS_P2;Temp;Humidity;BMP_temperature;BMP_pressure;BME280_temperature;BME280_humidity;BME280_pressure;Samples;Min_cycle;Max_cycle;Signal;HPM_P1;HPM_P2
2023/01/23 00:00:45;;;;;;;17.88;6.30;;;2.60;99.90;;;;;;5012009;28;20038;-69
2023/01/23 00:03:10;;;;;;;15.88;6.00;;;3.20;99.90;;;;;;5010770;28;20482;-69
2023/01/23 00:05:36;;;;;;;19.67;7.05;;;2.50;99.90;;;;;;5010950;28;20085;-69
2023/01/23 00:08:01;;;;;;;17.50;5.93;;;2.50;99.90;;;;;;5013337;28;20053;-69
2023/01/23 00:10:27;;;;;;;18.58;6.60;;;2.60;99.90;;;;;;5012880;28;20049;-69
2023/01/23 00:12:53;;;;;;;13.88;6.88;;;2.60;99.90;;;;;;5013611;28;20101;-69
2023/01/23 00:15:19;;;;;;;12.27;6.32;;;2.60;99.90;;;;;;5011331;28;20044;-69
2023/01/23 00:17:44;;;;;;;10.05;5.53;;;2.60;99.90;;;;;;5011922;28;20487;-69
2023/01/23 00:20:11;;;;;;;11.43;5.95;;;2.60;99.90;;;;;;5011152;28;20103;-69
2023/01/23 00:22:37;;;;;;;16.60;6.22;;;2.60;99.90;;;;;;5011114;28;20065;-69
2023/01/23 00:25:04;;;;;;;13.38;5.85;;;2.60;99.90;;;;;;5011190;28;20403;-69
2023/01/23 00:27:30;;;;;;;15.25;5.60;;;2.60;99.90;;;;;;5010533;28;20050;-69
2023/01/23 00:29:56;;;;;;;11.88;5.97;;;2.50;99.90;;;;;;5006652;28;20109;-69
2023/01/23 00:32:22;;;;;;;14.20;5.63;;;2.60;99.90;;;;;;5011486;28;20498;-69
2023/01/23 00:34:48;;;;;;;13.93;6.35;;;2.60;99.90;;;;;;5014406;28;20054;-69
2023/01/23 00:37:13;;;;;;;20.02;6.63;;;2.60;99.90;;;;;;5011122;28;20050;-69
2023/01/23 00:39:39;;;;;;;14.63;5.45;;;2.50;99.90;;;;;;5011660;28;20042;-68
2023/01/23 00:42:05;;;;;;;19.63;5.90;;;2.50;99.90;;;;;;5012197;28;20044;-68
2023/01/23 00:44:31;;;;;;;9.38;5.38;;;2.50;99.90;;;;;;5010840;28;20427;-68
2023/01/23 00:46:57;;;;;;;14.23;6.35;;;2.50;99.90;;;;;;5011666;28;20078;-68
2023/01/23 00:49:23;;;;;;;12.52;5.43;;;2.50;99.90;;;;;;5011406;28;20509;-68
2023/01/23 00:51:49;;;;;;;12.43;6.22;;;2.50;99.90;;;;;;5007102;28;20145;-69
2023/01/23 00:54:15;;;;;;;16.75;6.28;;;2.50;99.90;;;;;;5001615;28;20138;-69
2023/01/23 00:56:41;;;;;;;15.05;5.97;;;2.50;99.90;;;;;;5011448;28;20046;-68
2023/01/23 00:59:06;;;;;;;14.98;5.78;;;2.50;99.90;;;;;;5012600;28;20505;-69
2023/01/23 01:01:32;;;;;;;16.10;6.10;;;2.50;99.90;;;;;;5011338;28;20038;-69
2023/01/23 01:03:59;;;;;;;16.40;5.90;;;2.50;99.90;;;;;;5010987;28;20044;-69
2023/01/23 01:06:24;;;;;;;17.52;5.93;;;2.50;99.90;;;;;;5011486;28;20058;-69
2023/01/23 01:08:50;;;;;;;14.13;5.90;;;2.50;99.90;;;;;;5011185;28;20104;-69
2023/01/23 01:11:16;;;;;;;11.43;5.38;;;2.50;99.90;;;;;;5012991;28;20073;-69
2023/01/23 01:13:43;;;;;;;15.95;5.60;;;2.50;99.90;;;;;;5010172;28;20329;-68
2023/01/23 01:16:09;;;;;;;11.63;5.47;;;2.50;99.90;;;;;;5012084;28;20077;-69
2023/01/23 01:18:35;;;;;;;17.23;5.82;;;2.50;99.90;;;;;;5009181;28;20044;-69
2023/01/23 01:21:05;;;;;;;15.15;5.63;;;2.50;99.90;;;;;;5001764;28;20038;-69
2023/01/23 01:23:31;;;;;;;11.70;5.57;;;2.50;99.90;;;;;;5004729;28;20042;-68
2023/01/23 01:26:00;;;;;;;16.13;5.75;;;2.60;99.90;;;;;;5007793;28;20404;-69
2023/01/23 01:28:29;;;;;;;10.50;5.28;;;2.50;99.90;;;;;;5009245;28;20034;-69
2023/01/23 01:30:56;;;;;;;10.30;6.05;;;2.50;99.90;;;;;;5006692;28;20137;-68
2023/01/23 01:33:23;;;;;;;12.32;6.13;;;2.50;99.90;;;;;;5008333;28;20042;-69
2023/01/23 01:35:49;;;;;;;14.45;6.15;;;2.70;99.90;;;;;;5010222;28;20091;-69
2023/01/23 01:38:14;;;;;;;11.85;5.85;;;2.90;99.90;;;;;;5012005;28;20457;-69
2023/01/23 01:40:40;;;;;;;13.80;6.25;;;2.50;99.90;;;;;;5010480;28;20061;-69
2023/01/23 01:43:14;;;;;;;13.98;5.47;;;2.50;99.90;;;;;;5012271;28;20175;-69
2023/01/23 01:46:04;;;;;;;12.98;6.30;;;2.50;99.90;;;;;;5009831;28;20129;-69
2023/01/23 01:48:32;;;;;;;15.95;5.78;;;2.50;99.90;;;;;;5009741;28;20096;-69
2023/01/23 01:51:00;;;;;;;12.57;6.22;;;2.50;99.90;;;;;;5006007;28;20433;-69
2023/01/23 01:53:29;;;;;;;12.73;5.43;;;2.60;99.90;;;;;;5008816;28;20049;-69
2023/01/23 01:55:56;;;;;;;16.85;6.43;;;2.50;99.90;;;;;;5010828;28;20129;-68
2023/01/23 01:58:22;;;;;;;8.77;5.50;;;2.50;99.90;;;;;;5011995;28;20046;-69
2023/01/23 02:00:48;;;;;;;13.02;5.68;;;2.50;99.90;;;;;;5010226;28;20049;-69
2023/01/23 02:03:15;;;;;;;13.63;6.13;;;2.50;99.90;;;;;;5010964;28;20403;-69
2023/01/23 02:05:47;;;;;;;14.38;6.38;;;2.50;99.90;;;;;;5009513;28;20116;-69
2023/01/23 02:08:31;;;;;;;14.75;5.80;;;2.50;99.90;;;;;;5008153;28;20491;-69
2023/01/23 02:11:00;;;;;;;14.60;6.45;;;2.50;99.90;;;;;;5010875;28;20133;-69
2023/01/23 02:13:37;;;;;;;14.02;6.82;;;2.50;99.90;;;;;;5008407;28;20109;-69
2023/01/23 02:16:06;;;;;;;15.07;6.38;;;2.50;99.90;;;;;;5011133;28;20040;-69
2023/01/23 02:18:34;;;;;;;12.00;5.93;;;2.50;99.90;;;;;;5009084;28;20070;-69
2023/01/23 02:21:05;;;;;;;14.48;6.45;;;2.50;99.90;;;;;;5009922;28;20100;-69
2023/01/23 02:23:52;;;;;;;10.18;6.50;;;2.50;99.90;;;;;;5010577;28;20081;-69
2023/01/23 02:26:26;;;;;;;11.40;5.60;;;2.50;99.90;;;;;;5010753;28;20137;-69
2023/01/23 02:28:52;;;;;;;14.43;6.30;;;2.50;99.90;;;;;;5008068;28;20041;-69
2023/01/23 02:31:18;;;;;;;15.38;6.68;;;2.50;99.90;;;;;;5010050;28;20239;-69
2023/01/23 02:33:55;;;;;;;11.25;5.85;;;2.50;99.90;;;;;;5010020;28;20033;-69
2023/01/23 02:36:27;;;;;;;13.13;5.53;;;2.50;99.90;;;;;;5008699;28;20121;-69
2023/01/23 02:39:02;;;;;;;16.95;6.53;;;2.50;99.90;;;;;;5007761;28;20078;-69
2023/01/23 02:41:31;;;;;;;14.35;6.28;;;2.40;99.90;;;;;;5007910;28;20144;-69
2023/01/23 02:44:02;;;;;;;11.98;6.57;;;2.40;99.90;;;;;;5005346;28;20045;-69
2023/01/23 02:46:27;;;;;;;11.63;6.18;;;2.70;99.90;;;;;;5006684;28;20045;-69
2023/01/23 02:48:53;;;;;;;14.18;7.05;;;2.40;99.90;;;;;;5010866;28;20036;-69
2023/01/23 02:51:21;;;;;;;14.02;6.43;;;2.50;99.90;;;;;;5010629;28;20045;-69
2023/01/23 02:53:47;;;;;;;13.52;6.30;;;2.50;99.90;;;;;;5011349;28;20503;-69
2023/01/23 02:56:12;;;;;;;11.02;6.32;;;2.50;99.90;;;;;;5012592;28;20037;-68
2023/01/23 03:01:24;;;;;;;12.65;6.88;;;2.40;99.90;;;;;;5010366;28;20050;-68
2023/01/23 03:03:52;;;;;;;13.88;7.03;;;2.40;99.90;;;;;;5013681;28;20080;-69
2023/01/23 03:06:18;;;;;;;14.73;6.65;;;2.40;99.90;;;;;;5012277;28;20054;-68
2023/01/23 03:08:46;;;;;;;11.00;6.38;;;2.40;99.90;;;;;;5014310;28;20056;-68
2023/01/23 03:11:12;;;;;;;;;;;2.40;99.90;;;;;;5027510;28;20041;-69
2023/01/23 03:13:38;;;;;;;13.57;6.25;;;2.50;99.90;;;;;;5014010;28;19928;-68
2023/01/23 03:16:04;;;;;;;10.45;6.50;;;2.50;99.90;;;;;;5012998;28;20415;-68
2023/01/23 03:18:32;;;;;;;19.45;6.75;;;2.50;99.90;;;;;;5007177;28;20050;-68
2023/01/23 03:21:02;;;;;;;17.05;7.32;;;2.50;99.90;;;;;;5011885;28;20065;-69
2023/01/23 03:23:28;;;;;;;16.20;7.30;;;2.40;99.90;;;;;;5014065;28;20038;-68
2023/01/23 03:25:57;;;;;;;14.88;6.85;;;2.40;99.90;;;;;;5011425;28;20502;-68
2023/01/23 03:31:12;;;;;;;16.60;6.68;;;2.50;99.90;;;;;;5010325;28;20495;-69
2023/01/23 03:33:41;;;;;;;15.93;6.78;;;2.40;99.90;;;;;;5014246;28;20064;-69
2023/01/23 03:36:08;;;;;;;15.50;7.07;;;2.40;99.90;;;;;;5009443;28;20050;-69
2023/01/23 03:38:34;;;;;;;14.95;7.43;;;2.40;99.90;;;;;;5012635;28;20050;-69
2023/01/23 03:43:43;;;;;;;16.60;7.10;;;2.40;99.90;;;;;;5009877;28;20049;-69
2023/01/23 03:46:09;;;;;;;14.13;7.18;;;2.50;99.90;;;;;;5011881;28;20061;-69
2023/01/23 03:48:34;;;;;;;12.50;6.43;;;2.50;99.90;;;;;;4995169;28;20089;-69
2023/01/23 03:51:00;;;;;;;15.50;7.78;;;2.50;99.90;;;;;;5008417;28;20040;-69
2023/01/23 03:53:26;;;;;;;15.70;6.72;;;2.40;99.90;;;;;;5012621;28;20541;-69
2023/01/23 03:55:52;;;;;;;14.57;7.68;;;2.40;99.90;;;;;;5010997;28;20053;-69
2023/01/23 03:58:18;;;;;;;12.02;6.97;;;2.50;99.90;;;;;;5012738;28;20038;-69
2023/01/23 04:00:43;;;;;;;10.50;6.15;;;2.40;99.90;;;;;;5007745;28;20037;-69
2023/01/23 04:03:09;;;;;;;12.70;6.30;;;2.40;99.90;;;;;;5011704;28;20483;-69
2023/01/23 04:05:35;;;;;;;12.30;6.15;;;2.40;99.90;;;;;;5011899;28;20041;-69
2023/01/23 04:08:01;;;;;;;15.63;6.80;;;2.40;99.90;;;;;;5011314;28;20388;-69
2023/01/23 04:10:27;;;;;;;15.48;7.25;;;2.40;99.90;;;;;;5007035;28;20423;-69
2023/01/23 04:12:52;;;;;;;10.52;6.07;;;2.40;99.90;;;;;;5012816;28;20034;-68
2023/01/23 04:15:18;;;;;;;9.82;5.60;;;2.40;99.90;;;;;;5011857;28;20069;-69
2023/01/23 04:17:44;;;;;;;13.60;6.18;;;2.50;99.90;;;;;;5010556;28;20046;-69
2023/01/23 04:20:11;;;;;;;11.38;5.95;;;2.40;99.90;;;;;;5013583;28;20049;-69
2023/01/23 04:22:37;;;;;;;13.88;6.70;;;2.40;99.90;;;;;;5012427;28;20135;-68
2023/01/23 04:25:02;;;;;;;11.32;6.13;;;2.40;99.90;;;;;;5011529;28;20073;-68
2023/01/23 04:27:28;;;;;;;14.77;6.35;;;2.40;99.90;;;;;;5010418;28;20048;-69
2023/01/23 04:29:54;;;;;;;16.67;7.38;;;2.40;99.90;;;;;;5010755;28;20033;-69
2023/01/23 04:32:19;;;;;;;11.85;5.90;;;2.40;99.90;;;;;;5012395;28;20365;-68
2023/01/23 04:34:45;;;;;;;12.95;5.97;;;2.40;99.90;;;;;;5012661;28;20349;-69
2023/01/23 04:37:11;;;;;;;12.63;6.82;;;2.40;99.90;;;;;;5014028;28;20049;-69
2023/01/23 04:39:36;;;;;;;13.60;6.30;;;2.40;99.90;;;;;;5009271;28;20470;-69
2023/01/23 04:42:02;;;;;;;10.95;6.00;;;2.40;99.90;;;;;;5010832;28;20462;-69
2023/01/23 04:44:28;;;;;;;12.35;6.40;;;2.40;99.90;;;;;;5012968;28;20079;-68
2023/01/23 04:46:53;;;;;;;12.50;6.22;;;2.40;99.90;;;;;;5011420;28;20046;-68
2023/01/23 04:49:23;;;;;;;13.70;6.72;;;2.40;99.90;;;;;;5001647;28;20041;-68
2023/01/23 04:51:49;;;;;;;13.23;6.70;;;2.40;99.90;;;;;;5009408;28;20120;-68
2023/01/23 04:54:16;;;;;;;11.48;6.10;;;2.40;99.90;;;;;;5011094;28;20495;-69
2023/01/23 04:56:42;;;;;;;10.93;6.45;;;2.40;99.90;;;;;;5010132;28;20467;-68
2023/01/23 04:59:08;;;;;;;15.23;6.53;;;2.40;99.90;;;;;;5011295;28;20112;-68
2023/01/23 05:01:34;;;;;;;15.75;6.55;;;2.40;99.90;;;;;;5009849;28;20034;-68
2023/01/23 05:03:59;;;;;;;10.88;6.32;;;2.40;99.90;;;;;;5009539;28;20038;-68
2023/01/23 05:06:25;;;;;;;15.25;7.35;;;2.40;99.90;;;;;;5011935;28;20068;-69
2023/01/23 05:08:51;;;;;;;13.63;7.03;;;2.50;99.90;;;;;;5010838;28;20049;-69
2023/01/23 05:11:17;;;;;;;15.77;6.93;;;2.40;99.90;;;;;;5007563;28;20045;-68
2023/01/23 05:13:42;;;;;;;16.60;7.57;;;2.40;99.90;;;;;;5011378;28;20042;-69
2023/01/23 05:16:09;;;;;;;14.90;7.95;;;2.40;99.90;;;;;;5012380;28;20387;-68
2023/01/23 05:18:35;;;;;;;12.70;6.47;;;2.40;99.90;;;;;;5008299;28;20042;-68
2023/01/23 05:21:01;;;;;;;13.65;7.85;;;2.40;99.90;;;;;;5008899;28;20045;-69
2023/01/23 05:23:26;;;;;;;13.25;7.13;;;2.40;99.90;;;;;;5011836;28;20034;-69
2023/01/23 05:25:52;;;;;;;11.07;7.45;;;2.30;99.90;;;;;;5004780;28;20122;-69
2023/01/23 05:28:18;;;;;;;18.45;7.95;;;2.30;99.90;;;;;;5006442;28;20077;-69
2023/01/23 05:30:43;;;;;;;17.15;8.48;;;2.30;99.90;;;;;;5010661;28;20080;-69
2023/01/23 05:33:09;;;;;;;15.13;7.72;;;2.40;99.90;;;;;;5009954;28;20076;-68
2023/01/23 05:35:34;;;;;;;19.23;8.85;;;2.40;99.90;;;;;;5009662;28;20541;-68
2023/01/23 05:38:00;;;;;;;15.30;8.57;;;2.40;99.90;;;;;;5011376;28;20057;-68
2023/01/23 05:40:26;;;;;;;18.15;8.40;;;2.30;99.90;;;;;;5008832;28;20049;-69
2023/01/23 05:42:51;;;;;;;20.70;8.35;;;2.30;99.90;;;;;;5010274;28;20045;-68
2023/01/23 05:45:17;;;;;;;14.95;8.30;;;2.30;99.90;;;;;;5005210;28;20050;-69
2023/01/23 05:47:43;;;;;;;14.90;8.45;;;2.30;99.90;;;;;;5005867;28;20487;-69
2023/01/23 05:50:14;;;;;;;19.75;8.98;;;2.30;99.90;;;;;;5005205;28;20038;-69
2023/01/23 05:52:40;;;;;;;13.48;8.07;;;2.40;99.90;;;;;;5004662;28;20078;-68
2023/01/23 05:55:06;;;;;;;16.52;8.23;;;2.30;99.90;;;;;;5010279;28;20034;-68
2023/01/23 05:57:32;;;;;;;15.70;7.95;;;2.30;99.90;;;;;;5008793;28;20049;-68
2023/01/23 05:59:58;;;;;;;13.75;7.25;;;2.40;99.90;;;;;;5003138;28;20039;-69
2023/01/23 06:02:24;;;;;;;20.10;7.85;;;2.40;99.90;;;;;;5007815;28;20133;-68
2023/01/23 06:04:49;;;;;;;17.45;8.63;;;2.40;99.90;;;;;;5006257;28;20080;-68
2023/01/23 06:07:16;;;;;;;14.23;7.65;;;2.40;99.90;;;;;;5008219;28;20046;-68
2023/01/23 06:09:42;;;;;;;16.50;8.38;;;3.20;99.90;;;;;;4999799;28;20081;-69
2023/01/23 06:12:09;;;;;;;14.05;7.75;;;2.40;99.90;;;;;;5009886;28;20132;-69
2023/01/23 06:14:35;;;;;;;15.20;8.05;;;2.40;99.90;;;;;;5013647;28;20042;-69
2023/01/23 06:17:01;;;;;;;16.42;8.45;;;2.40;99.90;;;;;;5008560;28;20450;-68
2023/01/23 06:19:26;;;;;;;15.68;8.05;;;2.40;99.90;;;;;;5006506;28;20039;-68
2023/01/23 06:21:52;;;;;;;17.55;8.43;;;2.40;99.90;;;;;;5003245;28;20096;-69
2023/01/23 06:24:17;;;;;;;15.90;7.80;;;2.40;99.90;;;;;;5013935;28;20084;-69
2023/01/23 06:26:43;;;;;;;15.25;7.68;;;2.50;99.90;;;;;;5013227;28;20038;-68
2023/01/23 06:29:09;;;;;;;15.98;7.80;;;2.40;99.90;;;;;;5014526;28;20141;-68
2023/01/23 06:31:34;;;;;;;14.25;7.60;;;2.40;99.90;;;;;;5013084;28;20529;-68
2023/01/23 06:34:00;;;;;;;16.20;8.05;;;2.40;99.90;;;;;;5009496;28;20038;-68
2023/01/23 06:36:26;;;;;;;14.25;7.65;;;2.40;99.90;;;;;;5014213;28;21874;-68
2023/01/23 06:38:52;;;;;;;14.13;8.65;;;2.50;99.90;;;;;;5010819;28;20056;-68
2023/01/23 06:41:18;;;;;;;18.00;8.93;;;2.50;99.90;;;;;;5013304;28;20057;-69
2023/01/23 06:43:43;;;;;;;13.95;7.90;;;2.40;99.90;;;;;;4996441;28;20049;-68
2023/01/23 06:46:10;;;;;;;14.40;7.75;;;2.40;99.90;;;;;;5005411;28;20049;-69
2023/01/23 06:48:35;;;;;;;17.92;8.77;;;2.40;99.90;;;;;;5017508;28;20042;-68
2023/01/23 06:51:01;;;;;;;15.57;8.75;;;2.50;99.90;;;;;;5018198;28;20034;-68
2023/01/23 06:53:27;;;;;;;16.13;8.60;;;3.10;99.90;;;;;;5018686;28;20502;-68
2023/01/23 06:55:53;;;;;;;15.63;9.15;;;2.50;99.90;;;;;;5014657;28;20453;-68
2023/01/23 06:58:19;;;;;;;18.60;9.25;;;2.40;99.90;;;;;;5017347;28;20069;-68
2023/01/23 07:00:44;;;;;;;17.70;9.15;;;2.50;99.90;;;;;;5015193;28;20042;-68
2023/01/23 07:03:12;;;;;;;21.63;9.68;;;2.40;99.90;;;;;;5015846;28;20161;-68
2023/01/23 07:05:39;;;;;;;16.98;9.35;;;2.40;99.90;;;;;;5015226;28;20313;-69
2023/01/23 07:08:07;;;;;;;17.73;9.52;;;2.40;99.90;;;;;;5011823;28;20050;-68
2023/01/23 07:10:33;;;;;;;19.30;9.87;;;2.40;99.90;;;;;;5017963;28;20058;-68
2023/01/23 07:12:59;;;;;;;20.80;10.18;;;2.40;99.90;;;;;;5016935;28;20624;-68
2023/01/23 07:15:25;;;;;;;18.13;9.50;;;2.40;99.90;;;;;;5013928;28;20411;-70
2023/01/23 07:17:50;;;;;;;20.73;9.55;;;2.40;99.90;;;;;;5014963;28;20045;-68
2023/01/23 07:20:16;;;;;;;16.23;9.75;;;2.40;99.90;;;;;;5018034;28;20049;-68
2023/01/23 07:22:42;;;;;;;15.18;9.60;;;2.40;99.90;;;;;;5016767;28;20045;-68
2023/01/23 07:25:08;;;;;;;21.02;10.90;;;2.40;99.90;;;;;;5007556;28;20127;-68
2023/01/23 07:27:33;;;;;;;20.88;10.73;;;2.40;99.90;;;;;;5018242;28;20041;-69
2023/01/23 07:29:59;;;;;;;18.70;9.73;;;2.40;99.90;;;;;;5018790;28;20117;-68
2023/01/23 07:32:24;;;;;;;18.10;10.73;;;2.40;99.90;;;;;;5012404;28;20038;-68
2023/01/23 07:34:52;;;;;;;21.67;10.48;;;2.40;99.90;;;;;;5011910;28;20038;-68
2023/01/23 07:37:17;;;;;;;21.40;10.48;;;2.40;99.90;;;;;;5013621;28;20042;-69
2023/01/23 07:39:44;;;;;;;22.95;10.93;;;2.40;99.90;;;;;;5013604;28;20092;-69
2023/01/23 07:42:10;;;;;;;20.85;10.27;;;2.40;99.90;;;;;;5011875;28;20124;-69
2023/01/23 07:44:35;;;;;;;21.40;11.00;;;2.40;99.90;;;;;;5014635;28;20164;-69
2023/01/23 07:47:01;;;;;;;16.48;9.93;;;2.40;99.90;;;;;;5014633;28;20042;-69
2023/01/23 07:49:27;;;;;;;21.15;9.95;;;2.40;99.90;;;;;;5012770;28;20037;-69
2023/01/23 07:51:53;;;;;;;18.38;8.77;;;2.40;99.90;;;;;;5012009;28;20487;-69
2023/01/23 07:54:18;;;;;;;18.30;9.80;;;2.40;99.90;;;;;;5014328;28;20038;-69
2023/01/23 07:56:44;;;;;;;19.67;10.32;;;2.40;99.90;;;;;;5014707;28;20042;-69
2023/01/23 07:59:11;;;;;;;16.35;9.75;;;2.40;99.90;;;;;;5014551;28;20056;-69
2023/01/23 08:01:37;;;;;;;14.90;9.57;;;2.40;99.90;;;;;;5012554;28;20053;-69
2023/01/23 08:04:02;;;;;;;20.60;9.63;;;2.40;99.90;;;;;;5012460;28;20034;-69
2023/01/23 08:06:28;;;;;;;21.88;9.15;;;2.40;99.90;;;;;;5012934;28;20101;-69
2023/01/23 08:08:54;;;;;;;20.17;10.63;;;2.40;99.90;;;;;;5013123;28;20046;-69
2023/01/23 08:11:19;;;;;;;18.48;9.73;;;2.40;99.90;;;;;;5012715;28;20054;-69
2023/01/23 08:13:48;;;;;;;16.02;8.68;;;2.40;99.90;;;;;;5011296;28;20038;-69
2023/01/23 08:16:14;;;;;;;17.38;8.60;;;2.40;99.90;;;;;;5017036;28;20061;-69
2023/01/23 08:18:40;;;;;;;15.65;9.23;;;2.40;99.90;;;;;;5015536;28;20100;-69
2023/01/23 08:21:05;;;;;;;14.68;7.72;;;2.40;99.90;;;;;;5011850;28;20463;-70
2023/01/23 08:23:32;;;;;;;13.95;8.02;;;2.40;99.90;;;;;;5008415;28;20110;-69
2023/01/23 08:26:00;;;;;;;14.25;8.40;;;2.50;99.90;;;;;;5005712;28;20056;-70
2023/01/23 08:28:26;;;;;;;13.80;7.97;;;2.40;99.90;;;;;;5012317;28;20042;-69
2023/01/23 08:30:52;;;;;;;14.32;7.88;;;2.50;99.90;;;;;;5008636;28;20045;-69
2023/01/23 08:33:19;;;;;;;12.32;7.10;;;2.50;99.90;;;;;;5012843;28;20482;-69
2023/01/23 08:35:56;;;;;;;12.95;6.97;;;2.50;99.90;;;;;;5009627;28;20058;-68
2023/01/23 08:38:23;;;;;;;11.50;6.20;;;2.50;99.90;;;;;;4992376;28;20503;-68
2023/01/23 08:40:50;;;;;;;13.60;7.65;;;2.50;99.90;;;;;;5007072;28;20483;-69
2023/01/23 08:43:17;;;;;;;14.60;7.13;;;2.50;99.90;;;;;;5009289;28;20044;-68
2023/01/23 08:45:48;;;;;;;11.35;7.15;;;2.60;99.90;;;;;;5002619;28;20438;-69
2023/01/23 08:48:13;;;;;;;10.13;6.88;;;2.60;99.90;;;;;;5010295;28;20042;-67
2023/01/23 08:50:39;;;;;;;13.15;7.07;;;2.60;99.90;;;;;;5012322;28;20045;-68
2023/01/23 08:53:05;;;;;;;9.60;6.22;;;2.60;99.90;;;;;;5006941;28;20034;-68
2023/01/23 08:55:32;;;;;;;10.95;6.45;;;2.80;99.90;;;;;;5011762;28;20099;-68
2023/01/23 08:57:58;;;;;;;10.32;6.30;;;2.60;99.90;;;;;;5009761;28;20514;-69
2023/01/23 09:00:24;;;;;;;11.05;6.28;;;2.70;99.90;;;;;;5008065;28;20147;-69
2023/01/23 09:02:50;;;;;;;13.75;6.80;;;2.70;99.90;;;;;;5009493;28;20088;-68
2023/01/23 09:05:16;;;;;;;12.13;6.70;;;2.70;99.90;;;;;;5007348;28;20404;-68
2023/01/23 09:07:42;;;;;;;12.55;6.50;;;2.70;99.90;;;;;;5009626;28;20104;-69
2023/01/23 09:10:09;;;;;;;8.77;5.75;;;2.80;99.90;;;;;;5011091;28;20058;-69
2023/01/23 09:12:35;;;;;;;10.30;5.80;;;2.80;99.90;;;;;;5009688;28;20454;-68
2023/01/23 09:15:00;;;;;;;11.88;5.82;;;2.80;99.90;;;;;;5008965;28;20046;-69
2023/01/23 09:17:26;;;;;;;9.43;5.93;;;2.80;99.90;;;;;;5013144;28;20050;-69
2023/01/23 09:19:52;;;;;;;9.30;5.28;;;2.80;99.90;;;;;;5010159;28;20038;-68
2023/01/23 09:22:18;;;;;;;10.85;5.95;;;2.80;99.90;;;;;;5004464;28;20038;-68
2023/01/23 09:24:44;;;;;;;11.38;5.72;;;2.80;99.90;;;;;;5010416;28;20046;-68
2023/01/23 09:27:10;;;;;;;8.68;5.57;;;2.80;99.90;;;;;;5004453;28;20041;-68
2023/01/23 09:29:35;;;;;;;9.50;5.70;;;2.80;99.90;;;;;;5011773;28;20135;-69
2023/01/23 09:32:02;;;;;;;9.85;5.95;;;2.80;99.90;;;;;;5010892;28;20041;-69
2023/01/23 09:34:28;;;;;;;8.55;6.00;;;2.80;99.90;;;;;;4994811;28;20050;-70
2023/01/23 09:36:54;;;;;;;11.30;5.50;;;2.80;99.90;;;;;;5009012;28;20083;-69
2023/01/23 09:39:20;;;;;;;9.95;5.88;;;2.90;99.90;;;;;;5012471;28;20729;-69
2023/01/23 09:41:47;;;;;;;11.60;6.20;;;2.90;99.90;;;;;;5010218;28;20485;-68
2023/01/23 09:44:18;;;;;;;8.80;5.65;;;3.00;99.90;;;;;;5011854;28;20057;-69
2023/01/23 09:46:52;;;;;;;10.63;5.78;;;2.90;99.90;;;;;;5011902;28;20391;-68
2023/01/23 09:49:26;;;;;;;10.13;6.28;;;2.90;99.90;;;;;;5008480;28;20494;-69
2023/01/23 09:52:05;;;;;;;13.27;7.25;;;3.00;99.90;;;;;;4999502;28;20045;-68
2023/01/23 09:54:48;;;;;;;11.27;6.22;;;3.00;99.90;;;;;;5008721;28;20048;-68
2023/01/23 09:57:41;;;;;;;12.95;6.93;;;3.00;99.90;;;;;;5010839;28;20045;-68
2023/01/23 10:00:19;;;;;;;10.70;6.78;;;3.00;99.90;;;;;;4999412;28;20499;-68
2023/01/23 10:02:45;;;;;;;12.27;7.43;;;3.10;99.90;;;;;;5010816;28;20103;-68
2023/01/23 10:05:21;;;;;;;12.10;7.22;;;3.10;99.90;;;;;;5009803;28;20560;-69
2023/01/23 10:08:02;;;;;;;13.32;7.20;;;3.10;99.90;;;;;;5008719;28;20407;-69
2023/01/23 10:10:55;;;;;;;10.18;7.20;;;3.10;99.90;;;;;;5012040;28;20457;-68
2023/01/23 10:13:39;;;;;;;13.77;8.15;;;3.20;99.90;;;;;;5008762;28;20054;-69
2023/01/23 10:16:14;;;;;;;12.02;7.30;;;3.20;99.90;;;;;;5011211;28;20050;-69
2023/01/23 10:19:31;;;;;;;12.32;8.30;;;3.20;99.90;;;;;;4999589;28;20046;-68
2023/01/23 10:22:35;;;;;;;14.60;9.00;;;3.20;99.90;;;;;;4991179;28;20112;-68
2023/01/23 10:25:24;;;;;;;14.05;8.48;;;3.10;99.90;;;;;;5010927;28;20050;-69
2023/01/23 10:27:54;;;;;;;17.10;10.73;;;3.20;99.90;;;;;;5011720;28;20038;-69
2023/01/23 10:30:23;;;;;;;16.23;10.98;;;3.20;99.90;;;;;;5010735;28;20125;-68
2023/01/23 10:33:14;;;;;;;18.30;11.32;;;3.20;99.90;;;;;;5003345;28;20038;-69
2023/01/23 10:35:46;;;;;;;16.58;11.50;;;3.20;99.90;;;;;;5011356;28;20108;-68
2023/01/23 10:38:40;;;;;;;14.32;8.80;;;3.30;99.90;;;;;;5010504;28;20495;-68
2023/01/23 10:41:13;;;;;;;15.45;9.75;;;3.30;99.90;;;;;;5011242;28;20042;-68
2023/01/23 10:43:44;;;;;;;13.85;9.63;;;3.30;99.90;;;;;;5004454;28;20057;-68
2023/01/23 10:46:12;;;;;;;16.00;9.50;;;3.40;99.90;;;;;;5010261;28;20038;-68
2023/01/23 10:48:42;;;;;;;13.55;9.13;;;3.40;99.90;;;;;;5023274;28;20042;-68
2023/01/23 10:51:33;;;;;;;13.35;8.55;;;3.40;99.90;;;;;;4999475;28;20045;-69
2023/01/23 10:54:05;;;;;;;15.18;8.93;;;3.40;99.90;;;;;;5007385;28;20049;-68
2023/01/23 10:56:44;;;;;;;20.65;9.73;;;3.40;99.90;;;;;;4990077;28;20113;-69
2023/01/23 10:59:34;;;;;;;13.95;8.65;;;3.40;99.90;;;;;;5011041;28;20048;-69
2023/01/23 11:02:12;;;;;;;13.20;9.20;;;3.40;99.90;;;;;;5010257;28;20054;-69
2023/01/23 11:04:39;;;;;;;14.57;9.02;;;3.50;99.90;;;;;;5009466;28;20050;-69
2023/01/23 11:07:23;;;;;;;16.85;9.80;;;3.50;99.90;;;;;;5009717;28;20052;-70
2023/01/23 11:10:00;;;;;;;15.82;9.38;;;3.50;99.90;;;;;;5015511;28;20053;-69
2023/01/23 11:12:32;;;;;;;14.23;8.75;;;3.50;99.90;;;;;;5014979;28;20042;-69
2023/01/23 11:15:25;;;;;;;14.70;9.25;;;3.50;99.90;;;;;;5005422;28;20453;-69
2023/01/23 11:17:53;;;;;;;14.52;9.68;;;3.50;99.90;;;;;;5009096;28;20049;-69
2023/01/23 11:20:27;;;;;;;16.92;9.98;;;3.60;99.90;;;;;;5016293;28;20161;-69
2023/01/23 11:23:07;;;;;;;14.20;9.80;;;3.60;99.90;;;;;;5010891;28;20052;-70
2023/01/23 11:25:38;;;;;;;15.13;8.95;;;3.60;99.90;;;;;;5010784;28;20107;-70
2023/01/23 11:28:34;;;;;;;14.88;10.05;;;3.60;99.90;;;;;;5010575;28;20042;-70
2023/01/23 11:31:14;;;;;;;15.77;9.57;;;3.70;99.90;;;;;;5019262;28;20050;-70
2023/01/23 11:33:43;;;;;;;16.88;10.05;;;3.70;99.90;;;;;;5008665;28;20048;-70
2023/01/23 11:36:17;;;;;;;;;;;3.70;99.90;;;;;;5004265;28;20038;-70
2023/01/23 11:39:15;;;;;;;16.13;9.82;;;3.70;99.90;;;;;;5010954;28;19930;-70
2023/01/23 11:41:43;;;;;;;13.57;8.93;;;3.80;99.90;;;;;;5003718;28;20046;-70
2023/01/23 11:44:20;;;;;;;23.10;9.20;;;3.80;99.90;;;;;;5012027;28;20467;-70
2023/01/23 11:47:12;;;;;;;14.57;8.68;;;3.90;99.90;;;;;;5011121;28;20495;-70
2023/01/23 11:49:52;;;;;;;15.35;8.95;;;3.90;99.90;;;;;;5013272;28;20125;-70
2023/01/23 11:52:27;;;;;;;12.45;8.80;;;3.90;99.90;;;;;;5006587;28;20043;-70
2023/01/23 11:55:08;;;;;;;13.55;9.20;;;3.90;99.90;;;;;;5009395;28;20137;-70
2023/01/23 11:58:02;;;;;;;13.18;8.45;;;4.00;99.90;;;;;;5008430;28;20495;-70
2023/01/23 12:00:37;;;;;;;13.68;8.85;;;4.00;99.90;;;;;;5009834;28;20048;-71
2023/01/23 12:03:44;;;;;;;14.82;9.93;;;4.00;99.90;;;;;;5009646;28;20049;-71
2023/01/23 12:06:15;;;;;;;15.13;8.98;;;4.00;99.90;;;;;;4987825;28;20069;-71
2023/01/23 12:08:57;;;;;;;12.00;7.90;;;4.00;99.90;;;;;;4991686;28;20104;-71
2023/01/23 12:11:32;;;;;;;12.65;8.55;;;4.00;99.90;;;;;;5004658;28;20038;-71
2023/01/23 12:14:26;;;;;;;14.38;8.05;;;4.00;99.90;;;;;;5012895;28;20073;-71
2023/01/23 12:17:19;;;;;;;15.45;9.02;;;4.00;99.90;;;;;;5010277;28;20085;-71
2023/01/23 12:20:20;;;;;;;12.55;8.65;;;4.00;99.90;;;;;;5012927;28;20042;-71
2023/01/23 12:23:14;;;;;;;11.35;8.18;;;4.10;99.90;;;;;;5013142;28;20104;-71
2023/01/23 12:25:44;;;;;;;11.98;7.70;;;4.10;99.90;;;;;;5003178;28;20504;-71
2023/01/23 12:28:15;;;;;;;12.40;8.45;;;4.10;99.90;;;;;;5006612;28;20045;-71
2023/01/23 12:31:02;;;;;;;12.90;8.15;;;4.10;99.90;;;;;;5022578;28;20037;-71
2023/01/23 12:33:56;;;;;;;15.02;8.63;;;4.10;99.90;;;;;;5022226;28;20128;-71
2023/01/23 12:36:29;;;;;;;14.40;9.13;;;4.00;99.90;;;;;;5012969;28;20048;-71
2023/01/23 12:39:22;;;;;;;18.13;9.00;;;4.00;99.90;;;;;;5022270;28;20401;-71
2023/01/23 12:41:52;;;;;;;15.43;9.57;;;4.00;99.90;;;;;;5010006;28;20132;-71
2023/01/23 12:44:42;;;;;;;14.43;8.60;;;4.00;99.90;;;;;;5008556;28;20042;-71
2023/01/23 12:47:17;;;;;;;13.70;9.35;;;4.00;99.90;;;;;;5009757;28;20050;-70
2023/01/23 12:49:46;;;;;;;15.73;8.95;;;4.10;99.90;;;;;;5010629;28;20570;-70
2023/01/23 12:52:28;;;;;;;18.35;9.07;;;4.00;99.90;;;;;;5006896;28;20466;-69
2023/01/23 12:55:14;;;;;;;13.95;8.60;;;3.90;99.90;;;;;;5009250;28;20546;-70
2023/01/23 12:57:50;;;;;;;15.07;8.63;;;4.00;99.90;;;;;;5004594;28;20053;-70
2023/01/23 13:00:34;;;;;;;13.95;8.80;;;4.00;99.90;;;;;;5013794;28;20034;-71
2023/01/23 13:03:33;;;;;;;11.10;7.60;;;3.90;99.90;;;;;;5016032;28;20519;-69
2023/01/23 13:06:25;;;;;;;12.40;7.38;;;3.90;99.90;;;;;;5007654;28;20042;-69
2023/01/23 13:09:12;;;;;;;14.57;8.52;;;3.90;99.90;;;;;;5001611;28;20715;-69
2023/01/23 13:11:53;;;;;;;13.43;8.00;;;3.80;99.90;;;;;;5023497;28;20045;-69